sensor_id;sensor_type;location;lat;lon;timestamp;P1;durP1;ratioP1;P2;durP2;ratioP2
14992;SDS011;7592;51.088;13.732;2023-06-26T00:02:18;7.87;;;7.17;;
14992;SDS011;7592;51.088;13.732;2023-06-26T00:07:10;6.80;;;6.37;;
14992;SDS011;7592;51.088;13.732;2023-06-26T00:12:03;7.60;;;6.87;;
14992;SDS011;7592;51.088;13.732;2023-06-26T00:16:55;7.83;;;7.23;;
14992;SDS011;7592;51.088;13.732;2023-06-26T00:21:47;8.97;;;8.27;;
14992;SDS011;7592;51.088;13.732;2023-06-26T00:26:39;8.47;;;7.67;;
14992;SDS011;7592;51.088;13.732;2023-06-26T00:31:32;10.97;;;7.30;;
14992;SDS011;7592;51.088;13.732;2023-06-26T00:36:25;7.07;;;6.47;;
14992;SDS011;7592;51.088;13.732;2023-06-26T00:41:18;7.33;;;6.57;;
14992;SDS011;7592;51.088;13.732;2023-06-26T00:46:12;7.60;;;6.90;;
14992;SDS011;7592;51.088;13.732;2023-06-26T00:51:05;7.77;;;7.17;;
14992;SDS011;7592;51.088;13.732;2023-06-26T00:55:57;7.90;;;7.30;;
14992;SDS011;7592;51.088;13.732;2023-06-26T01:00:53;7.00;;;6.50;;
14992;SDS011;7592;51.088;13.732;2023-06-26T01:12:54;7.17;;;6.67;;
14992;SDS011;7592;51.088;13.732;2023-06-26T01:17:46;7.03;;;6.33;;
14992;SDS011;7592;51.088;13.732;2023-06-26T01:27:37;8.10;;;7.37;;
14992;SDS011;7592;51.088;13.732;2023-06-26T01:32:31;8.10;;;7.37;;
14992;SDS011;7592;51.088;13.732;2023-06-26T01:37:27;7.93;;;7.23;;
14992;SDS011;7592;51.088;13.732;2023-06-26T01:42:19;7.60;;;7.00;;
14992;SDS011;7592;51.088;13.732;2023-06-26T01:47:14;7.00;;;6.50;;
14992;SDS011;7592;51.088;13.732;2023-06-26T01:57:20;7.90;;;7.30;;
14992;SDS011;7592;51.088;13.732;2023-06-26T02:02:16;8.00;;;7.40;;
14992;SDS011;7592;51.088;13.732;2023-06-26T02:07:08;8.40;;;7.70;;
14992;SDS011;7592;51.088;13.732;2023-06-26T02:12:01;8.13;;;7.43;;
14992;SDS011;7592;51.088;13.732;2023-06-26T02:16:53;7.80;;;7.20;;
14992;SDS011;7592;51.088;13.732;2023-06-26T02:21:45;7.70;;;7.20;;
14992;SDS011;7592;51.088;13.732;2023-06-26T02:26:37;7.93;;;7.23;;
14992;SDS011;7592;51.088;13.732;2023-06-26T02:31:30;7.77;;;7.17;;
14992;SDS011;7592;51.088;13.732;2023-06-26T02:36:22;8.00;;;7.40;;
14992;SDS011;7592;51.088;13.732;2023-06-26T02:41:14;8.80;;;8.00;;
14992;SDS011;7592;51.088;13.732;2023-06-26T02:46:06;7.50;;;6.90;;
14992;SDS011;7592;51.088;13.732;2023-06-26T02:50:59;7.63;;;6.97;;
14992;SDS011;7592;51.088;13.732;2023-06-26T02:55:54;8.20;;;7.50;;
14992;SDS011;7592;51.088;13.732;2023-06-26T03:00:46;7.47;;;6.70;;
14992;SDS011;7592;51.088;13.732;2023-06-26T03:05:41;8.10;;;7.30;;
14992;SDS011;7592;51.088;13.732;2023-06-26T03:10:33;7.90;;;7.20;;
14992;SDS011;7592;51.088;13.732;2023-06-26T03:15:26;7.63;;;7.03;;
14992;SDS011;7592;51.088;13.732;2023-06-26T03:20:18;8.07;;;7.33;;
14992;SDS011;7592;51.088;13.732;2023-06-26T03:25:14;7.10;;;6.43;;
14992;SDS011;7592;51.088;13.732;2023-06-26T03:30:07;10.07;;;7.47;;
14992;SDS011;7592;51.088;13.732;2023-06-26T03:35:04;14.03;;;7.93;;
14992;SDS011;7592;51.088;13.732;2023-06-26T03:39:58;11.87;;;8.23;;
14992;SDS011;7592;51.088;13.732;2023-06-26T03:44:50;13.57;;;9.17;;
14992;SDS011;7592;51.088;13.732;2023-06-26T03:49:43;10.00;;;8.43;;
14992;SDS011;7592;51.088;13.732;2023-06-26T03:54:35;10.77;;;9.53;;
14992;SDS011;7592;51.088;13.732;2023-06-26T03:59:28;9.83;;;8.77;;
14992;SDS011;7592;51.088;13.732;2023-06-26T04:04:20;10.67;;;8.73;;
14992;SDS011;7592;51.088;13.732;2023-06-26T04:09:12;10.70;;;8.27;;
14992;SDS011;7592;51.088;13.732;2023-06-26T04:14:05;11.43;;;8.27;;
14992;SDS011;7592;51.088;13.732;2023-06-26T04:18:57;11.27;;;8.27;;
14992;SDS011;7592;51.088;13.732;2023-06-26T04:23:49;8.67;;;7.97;;
14992;SDS011;7592;51.088;13.732;2023-06-26T04:28:42;8.47;;;6.90;;
14992;SDS011;7592;51.088;13.732;2023-06-26T04:33:35;9.70;;;6.37;;
14992;SDS011;7592;51.088;13.732;2023-06-26T04:38:30;6.47;;;5.87;;
14992;SDS011;7592;51.088;13.732;2023-06-26T04:43:25;9.13;;;6.10;;
14992;SDS011;7592;51.088;13.732;2023-06-26T04:48:17;7.27;;;5.50;;
14992;SDS011;7592;51.088;13.732;2023-06-26T04:53:10;6.80;;;5.82;;
14992;SDS011;7592;51.088;13.732;2023-06-26T04:58:02;6.30;;;5.85;;
14992;SDS011;7592;51.088;13.732;2023-06-26T05:02:54;6.97;;;5.47;;
14992;SDS011;7592;51.088;13.732;2023-06-26T05:07:53;8.38;;;4.95;;
14992;SDS011;7592;51.088;13.732;2023-06-26T05:12:46;6.13;;;5.53;;
14992;SDS011;7592;51.088;13.732;2023-06-26T05:17:38;5.18;;;4.78;;
14992;SDS011;7592;51.088;13.732;2023-06-26T05:22:31;6.03;;;5.63;;
14992;SDS011;7592;51.088;13.732;2023-06-26T05:27:25;6.50;;;4.93;;
14992;SDS011;7592;51.088;13.732;2023-06-26T05:32:18;5.78;;;5.35;;
14992;SDS011;7592;51.088;13.732;2023-06-26T05:37:10;6.13;;;5.45;;
14992;SDS011;7592;51.088;13.732;2023-06-26T05:42:09;4.35;;;4.13;;
14992;SDS011;7592;51.088;13.732;2023-06-26T05:47:01;5.72;;;5.20;;
14992;SDS011;7592;51.088;13.732;2023-06-26T05:51:54;5.82;;;4.90;;
14992;SDS011;7592;51.088;13.732;2023-06-26T05:56:47;5.28;;;4.85;;
14992;SDS011;7592;51.088;13.732;2023-06-26T06:01:40;4.82;;;4.53;;
14992;SDS011;7592;51.088;13.732;2023-06-26T06:06:32;5.53;;;4.60;;
14992;SDS011;7592;51.088;13.732;2023-06-26T06:11:24;5.53;;;4.60;;
14992;SDS011;7592;51.088;13.732;2023-06-26T06:16:16;7.32;;;6.28;;
14992;SDS011;7592;51.088;13.732;2023-06-26T06:21:09;5.15;;;4.63;;
14992;SDS011;7592;51.088;13.732;2023-06-26T06:26:01;4.95;;;4.50;;
14992;SDS011;7592;51.088;13.732;2023-06-26T06:30:53;5.07;;;4.78;;
14992;SDS011;7592;51.088;13.732;2023-06-26T06:35:45;4.63;;;4.32;;
14992;SDS011;7592;51.088;13.732;2023-06-26T06:40:37;4.75;;;4.25;;
14992;SDS011;7592;51.088;13.732;2023-06-26T06:45:30;4.63;;;4.25;;
14992;SDS011;7592;51.088;13.732;2023-06-26T06:50:22;4.82;;;4.50;;
14992;SDS011;7592;51.088;13.732;2023-06-26T06:55:14;4.57;;;4.13;;
14992;SDS011;7592;51.088;13.732;2023-06-26T07:00:10;4.55;;;4.15;;
14992;SDS011;7592;51.088;13.732;2023-06-26T07:05:04;4.30;;;3.90;;
14992;SDS011;7592;51.088;13.732;2023-06-26T07:09:58;4.78;;;4.35;;
14992;SDS011;7592;51.088;13.732;2023-06-26T07:14:51;4.60;;;4.30;;
14992;SDS011;7592;51.088;13.732;2023-06-26T07:19:43;4.78;;;3.75;;
14992;SDS011;7592;51.088;13.732;2023-06-26T07:24:35;4.43;;;4.07;;
14992;SDS011;7592;51.088;13.732;2023-06-26T07:29:28;6.20;;;4.38;;
14992;SDS011;7592;51.088;13.732;2023-06-26T07:34:20;4.50;;;4.10;;
14992;SDS011;7592;51.088;13.732;2023-06-26T07:39:12;4.15;;;3.78;;
14992;SDS011;7592;51.088;13.732;2023-06-26T07:44:11;4.50;;;4.13;;
14992;SDS011;7592;51.088;13.732;2023-06-26T07:49:04;4.72;;;4.32;;
14992;SDS011;7592;51.088;13.732;2023-06-26T07:53:56;4.40;;;4.20;;
14992;SDS011;7592;51.088;13.732;2023-06-26T07:58:48;4.82;;;4.53;;
14992;SDS011;7592;51.088;13.732;2023-06-26T08:03:40;4.60;;;4.22;;
14992;SDS011;7592;51.088;13.732;2023-06-26T08:08:33;4.97;;;4.63;;
14992;SDS011;7592;51.088;13.732;2023-06-26T08:13:26;8.50;;;4.65;;
14992;SDS011;7592;51.088;13.732;2023-06-26T08:18:19;4.93;;;4.38;;
14992;SDS011;7592;51.088;13.732;2023-06-26T08:23:14;4.57;;;4.07;;
14992;SDS011;7592;51.088;13.732;2023-06-26T08:28:06;6.68;;;4.53;;
14992;SDS011;7592;51.088;13.732;2023-06-26T08:32:58;5.20;;;4.80;;
14992;SDS011;7592;51.088;13.732;2023-06-26T08:37:50;4.85;;;4.55;;
14992;SDS011;7592;51.088;13.732;2023-06-26T08:42:43;4.60;;;4.35;;
14992;SDS011;7592;51.088;13.732;2023-06-26T08:47:35;5.00;;;4.80;;
14992;SDS011;7592;51.088;13.732;2023-06-26T08:52:36;5.30;;;5.00;;
14992;SDS011;7592;51.088;13.732;2023-06-26T08:57:35;5.30;;;5.10;;
14992;SDS011;7592;51.088;13.732;2023-06-26T09:02:29;6.32;;;5.82;;
14992;SDS011;7592;51.088;13.732;2023-06-26T09:07:21;5.65;;;5.45;;
14992;SDS011;7592;51.088;13.732;2023-06-26T09:12:14;6.13;;;5.75;;
14992;SDS011;7592;51.088;13.732;2023-06-26T09:17:07;7.25;;;6.75;;
14992;SDS011;7592;51.088;13.732;2023-06-26T09:22:00;8.57;;;6.10;;
14992;SDS011;7592;51.088;13.732;2023-06-26T09:26:52;6.93;;;6.15;;
14992;SDS011;7592;51.088;13.732;2023-06-26T09:31:45;5.55;;;5.20;;
14992;SDS011;7592;51.088;13.732;2023-06-26T09:36:37;5.68;;;5.47;;
14992;SDS011;7592;51.088;13.732;2023-06-26T09:41:31;5.72;;;5.53;;
14992;SDS011;7592;51.088;13.732;2023-06-26T09:51:17;6.60;;;6.03;;
14992;SDS011;7592;51.088;13.732;2023-06-26T09:56:17;5.70;;;5.40;;
14992;SDS011;7592;51.088;13.732;2023-06-26T10:01:09;5.35;;;5.15;;
14992;SDS011;7592;51.088;13.732;2023-06-26T10:06:02;5.00;;;4.80;;
14992;SDS011;7592;51.088;13.732;2023-06-26T10:10:55;5.43;;;5.03;;
14992;SDS011;7592;51.088;13.732;2023-06-26T10:15:49;5.68;;;5.38;;
14992;SDS011;7592;51.088;13.732;2023-06-26T10:20:42;7.00;;;6.72;;
14992;SDS011;7592;51.088;13.732;2023-06-26T10:25:40;6.95;;;6.75;;
14992;SDS011;7592;51.088;13.732;2023-06-26T10:30:35;6.28;;;5.75;;
14992;SDS011;7592;51.088;13.732;2023-06-26T10:35:30;6.03;;;5.72;;
14992;SDS011;7592;51.088;13.732;2023-06-26T10:40:27;6.75;;;6.35;;
14992;SDS011;7592;51.088;13.732;2023-06-26T10:45:20;6.22;;;5.82;;
14992;SDS011;7592;51.088;13.732;2023-06-26T10:55:14;5.82;;;5.60;;
14992;SDS011;7592;51.088;13.732;2023-06-26T11:00:10;6.38;;;6.03;;
14992;SDS011;7592;51.088;13.732;2023-06-26T11:05:05;6.18;;;5.88;;
14992;SDS011;7592;51.088;13.732;2023-06-26T11:14:59;5.85;;;5.30;;
14992;SDS011;7592;51.088;13.732;2023-06-26T11:19:52;5.43;;;5.22;;
14992;SDS011;7592;51.088;13.732;2023-06-26T11:24:45;5.38;;;5.00;;
14992;SDS011;7592;51.088;13.732;2023-06-26T11:29:38;5.10;;;4.80;;
14992;SDS011;7592;51.088;13.732;2023-06-26T11:34:39;4.50;;;4.30;;
14992;SDS011;7592;51.088;13.732;2023-06-26T11:39:33;4.65;;;4.45;;
14992;SDS011;7592;51.088;13.732;2023-06-26T11:44:25;5.00;;;4.35;;
14992;SDS011;7592;51.088;13.732;2023-06-26T11:49:23;5.43;;;4.15;;
14992;SDS011;7592;51.088;13.732;2023-06-26T11:54:22;5.63;;;5.22;;
14992;SDS011;7592;51.088;13.732;2023-06-26T11:59:18;5.80;;;5.07;;
14992;SDS011;7592;51.088;13.732;2023-06-26T12:04:11;6.00;;;5.53;;
14992;SDS011;7592;51.088;13.732;2023-06-26T12:09:06;5.57;;;5.10;;
14992;SDS011;7592;51.088;13.732;2023-06-26T12:14:01;4.95;;;4.65;;
14992;SDS011;7592;51.088;13.732;2023-06-26T12:19:00;5.55;;;5.15;;
14992;SDS011;7592;51.088;13.732;2023-06-26T12:24:00;4.68;;;4.32;;
14992;SDS011;7592;51.088;13.732;2023-06-26T12:34:13;4.65;;;4.35;;
14992;SDS011;7592;51.088;13.732;2023-06-26T12:39:09;4.97;;;4.68;;
14992;SDS011;7592;51.088;13.732;2023-06-26T12:44:05;5.20;;;4.90;;
14992;SDS011;7592;51.088;13.732;2023-06-26T12:49:07;5.07;;;4.78;;
14992;SDS011;7592;51.088;13.732;2023-06-26T12:54:19;4.93;;;4.63;;
14992;SDS011;7592;51.088;13.732;2023-06-26T12:59:12;4.53;;;4.32;;
14992;SDS011;7592;51.088;13.732;2023-06-26T13:04:05;4.72;;;4.35;;
14992;SDS011;7592;51.088;13.732;2023-06-26T13:08:58;4.72;;;4.38;;
14992;SDS011;7592;51.088;13.732;2023-06-26T13:13:50;5.15;;;4.85;;
14992;SDS011;7592;51.088;13.732;2023-06-26T13:19:01;5.28;;;4.90;;
14992;SDS011;7592;51.088;13.732;2023-06-26T13:23:53;5.32;;;4.93;;
14992;SDS011;7592;51.088;13.732;2023-06-26T13:28:47;4.88;;;4.68;;
14992;SDS011;7592;51.088;13.732;2023-06-26T13:33:40;4.82;;;4.45;;
14992;SDS011;7592;51.088;13.732;2023-06-26T13:38:33;6.07;;;5.63;;
14992;SDS011;7592;51.088;13.732;2023-06-26T13:43:26;5.40;;;5.00;;
14992;SDS011;7592;51.088;13.732;2023-06-26T13:48:19;5.60;;;5.28;;
14992;SDS011;7592;51.088;13.732;2023-06-26T13:53:12;6.95;;;4.88;;
14992;SDS011;7592;51.088;13.732;2023-06-26T13:58:05;4.93;;;4.63;;
14992;SDS011;7592;51.088;13.732;2023-06-26T14:02:58;6.15;;;4.90;;
14992;SDS011;7592;51.088;13.732;2023-06-26T14:07:50;4.93;;;4.63;;
14992;SDS011;7592;51.088;13.732;2023-06-26T14:12:42;5.50;;;5.20;;
14992;SDS011;7592;51.088;13.732;2023-06-26T14:17:35;5.72;;;5.43;;
14992;SDS011;7592;51.088;13.732;2023-06-26T14:22:27;5.50;;;4.97;;
14992;SDS011;7592;51.088;13.732;2023-06-26T14:27:19;7.72;;;5.30;;
14992;SDS011;7592;51.088;13.732;2023-06-26T14:32:11;5.53;;;5.10;;
14992;SDS011;7592;51.088;13.732;2023-06-26T14:37:04;5.70;;;5.30;;
14992;SDS011;7592;51.088;13.732;2023-06-26T14:41:56;5.45;;;4.95;;
14992;SDS011;7592;51.088;13.732;2023-06-26T14:46:49;5.07;;;4.78;;
14992;SDS011;7592;51.088;13.732;2023-06-26T14:51:41;4.97;;;4.68;;
14992;SDS011;7592;51.088;13.732;2023-06-26T14:56:34;5.38;;;5.07;;
14992;SDS011;7592;51.088;13.732;2023-06-26T15:01:26;6.25;;;5.85;;
14992;SDS011;7592;51.088;13.732;2023-06-26T15:06:18;7.80;;;5.15;;
14992;SDS011;7592;51.088;13.732;2023-06-26T15:11:10;6.20;;;5.80;;
14992;SDS011;7592;51.088;13.732;2023-06-26T15:16:02;5.88;;;5.40;;
14992;SDS011;7592;51.088;13.732;2023-06-26T15:20:55;5.70;;;5.40;;
14992;SDS011;7592;51.088;13.732;2023-06-26T15:25:47;5.55;;;5.25;;
14992;SDS011;7592;51.088;13.732;2023-06-26T15:30:39;6.40;;;6.00;;
14992;SDS011;7592;51.088;13.732;2023-06-26T15:35:31;6.70;;;6.28;;
14992;SDS011;7592;51.088;13.732;2023-06-26T15:40:23;6.05;;;5.47;;
14992;SDS011;7592;51.088;13.732;2023-06-26T15:45:16;5.35;;;5.05;;
14992;SDS011;7592;51.088;13.732;2023-06-26T15:50:17;5.97;;;5.53;;
14992;SDS011;7592;51.088;13.732;2023-06-26T15:55:09;6.75;;;6.25;;
14992;SDS011;7592;51.088;13.732;2023-06-26T16:00:02;6.93;;;5.05;;
14992;SDS011;7592;51.088;13.732;2023-06-26T16:05:04;6.90;;;6.30;;
14992;SDS011;7592;51.088;13.732;2023-06-26T16:09:57;6.40;;;6.00;;
14992;SDS011;7592;51.088;13.732;2023-06-26T16:14:49;15.68;;;6.80;;
14992;SDS011;7592;51.088;13.732;2023-06-26T16:19:41;11.83;;;7.00;;
14992;SDS011;7592;51.088;13.732;2023-06-26T16:24:34;15.00;;;7.33;;
14992;SDS011;7592;51.088;13.732;2023-06-26T16:29:26;19.57;;;7.47;;
14992;SDS011;7592;51.088;13.732;2023-06-26T16:34:18;11.73;;;9.70;;
14992;SDS011;7592;51.088;13.732;2023-06-26T16:39:10;36.23;;;28.57;;
14992;SDS011;7592;51.088;13.732;2023-06-26T16:44:07;39.40;;;30.93;;
14992;SDS011;7592;51.088;13.732;2023-06-26T16:48:59;12.60;;;7.57;;
14992;SDS011;7592;51.088;13.732;2023-06-26T16:53:51;7.60;;;6.90;;
14992;SDS011;7592;51.088;13.732;2023-06-26T16:58:43;13.37;;;7.40;;
14992;SDS011;7592;51.088;13.732;2023-06-26T17:03:35;6.83;;;6.23;;
14992;SDS011;7592;51.088;13.732;2023-06-26T17:08:27;17.83;;;15.43;;
14992;SDS011;7592;51.088;13.732;2023-06-26T17:13:20;7.57;;;6.83;;
14992;SDS011;7592;51.088;13.732;2023-06-26T17:18:12;8.17;;;6.90;;
14992;SDS011;7592;51.088;13.732;2023-06-26T17:23:04;72.47;;;60.23;;
14992;SDS011;7592;51.088;13.732;2023-06-26T17:27:56;61.83;;;53.93;;
14992;SDS011;7592;51.088;13.732;2023-06-26T17:32:48;25.33;;;22.40;;
14992;SDS011;7592;51.088;13.732;2023-06-26T17:37:41;17.30;;;15.70;;
14992;SDS011;7592;51.088;13.732;2023-06-26T17:42:34;10.97;;;9.87;;
14992;SDS011;7592;51.088;13.732;2023-06-26T17:47:31;12.80;;;8.43;;
14992;SDS011;7592;51.088;13.732;2023-06-26T17:52:23;26.97;;;22.97;;
14992;SDS011;7592;51.088;13.732;2023-06-26T17:57:15;11.27;;;9.13;;
14992;SDS011;7592;51.088;13.732;2023-06-26T18:02:07;10.90;;;9.13;;
14992;SDS011;7592;51.088;13.732;2023-06-26T18:06:59;9.17;;;8.37;;
14992;SDS011;7592;51.088;13.732;2023-06-26T18:11:52;11.00;;;9.90;;
14992;SDS011;7592;51.088;13.732;2023-06-26T18:16:45;11.47;;;10.30;;
14992;SDS011;7592;51.088;13.732;2023-06-26T18:21:37;18.93;;;13.23;;
14992;SDS011;7592;51.088;13.732;2023-06-26T18:26:29;9.77;;;8.77;;
14992;SDS011;7592;51.088;13.732;2023-06-26T18:31:21;12.07;;;9.63;;
14992;SDS011;7592;51.088;13.732;2023-06-26T18:36:13;9.87;;;8.93;;
14992;SDS011;7592;51.088;13.732;2023-06-26T18:41:09;8.93;;;8.03;;
14992;SDS011;7592;51.088;13.732;2023-06-26T18:46:02;10.70;;;8.87;;
14992;SDS011;7592;51.088;13.732;2023-06-26T18:50:54;10.37;;;8.70;;
14992;SDS011;7592;51.088;13.732;2023-06-26T18:55:49;9.73;;;8.73;;
14992;SDS011;7592;51.088;13.732;2023-06-26T19:00:42;12.73;;;9.10;;
14992;SDS011;7592;51.088;13.732;2023-06-26T19:05:34;8.93;;;8.20;;
14992;SDS011;7592;51.088;13.732;2023-06-26T19:10:26;10.03;;;9.13;;
14992;SDS011;7592;51.088;13.732;2023-06-26T19:15:19;10.40;;;9.00;;
14992;SDS011;7592;51.088;13.732;2023-06-26T19:20:11;9.97;;;9.03;;
14992;SDS011;7592;51.088;13.732;2023-06-26T19:25:04;8.90;;;8.00;;
14992;SDS011;7592;51.088;13.732;2023-06-26T19:29:57;9.27;;;8.37;;
14992;SDS011;7592;51.088;13.732;2023-06-26T19:34:50;9.07;;;8.37;;
14992;SDS011;7592;51.088;13.732;2023-06-26T19:39:42;13.43;;;8.80;;
14992;SDS011;7592;51.088;13.732;2023-06-26T19:44:35;8.97;;;8.03;;
14992;SDS011;7592;51.088;13.732;2023-06-26T19:49:27;9.07;;;8.10;;
14992;SDS011;7592;51.088;13.732;2023-06-26T19:54:19;9.30;;;8.20;;
14992;SDS011;7592;51.088;13.732;2023-06-26T19:59:11;8.73;;;7.93;;
14992;SDS011;7592;51.088;13.732;2023-06-26T20:04:04;11.03;;;8.47;;
14992;SDS011;7592;51.088;13.732;2023-06-26T20:08:56;13.00;;;8.23;;
14992;SDS011;7592;51.088;13.732;2023-06-26T20:13:48;8.93;;;8.23;;
14992;SDS011;7592;51.088;13.732;2023-06-26T20:18:40;8.20;;;7.47;;
14992;SDS011;7592;51.088;13.732;2023-06-26T20:23:33;8.23;;;7.63;;
14992;SDS011;7592;51.088;13.732;2023-06-26T20:28:25;8.07;;;7.20;;
14992;SDS011;7592;51.088;13.732;2023-06-26T20:33:17;8.00;;;7.13;;
14992;SDS011;7592;51.088;13.732;2023-06-26T20:38:09;8.10;;;7.30;;
14992;SDS011;7592;51.088;13.732;2023-06-26T20:43:02;9.00;;;8.20;;
14992;SDS011;7592;51.088;13.732;2023-06-26T20:47:58;9.73;;;8.77;;
14992;SDS011;7592;51.088;13.732;2023-06-26T20:52:51;8.57;;;7.87;;
14992;SDS011;7592;51.088;13.732;2023-06-26T20:57:44;8.30;;;7.60;;
14992;SDS011;7592;51.088;13.732;2023-06-26T21:02:36;9.00;;;8.30;;
14992;SDS011;7592;51.088;13.732;2023-06-26T21:07:30;9.57;;;8.67;;
14992;SDS011;7592;51.088;13.732;2023-06-26T21:12:22;12.60;;;10.00;;
14992;SDS011;7592;51.088;13.732;2023-06-26T21:17:14;10.43;;;9.37;;
14992;SDS011;7592;51.088;13.732;2023-06-26T21:22:06;10.10;;;9.27;;
14992;SDS011;7592;51.088;13.732;2023-06-26T21:26:59;10.10;;;9.03;;
14992;SDS011;7592;51.088;13.732;2023-06-26T21:31:51;9.43;;;8.60;;
14992;SDS011;7592;51.088;13.732;2023-06-26T21:36:43;9.57;;;8.53;;
14992;SDS011;7592;51.088;13.732;2023-06-26T21:41:36;10.43;;;9.37;;
14992;SDS011;7592;51.088;13.732;2023-06-26T21:46:28;10.57;;;9.47;;
14992;SDS011;7592;51.088;13.732;2023-06-26T21:51:20;10.93;;;9.83;;
14992;SDS011;7592;51.088;13.732;2023-06-26T21:56:13;10.07;;;9.17;;
14992;SDS011;7592;51.088;13.732;2023-06-26T22:01:05;11.90;;;10.80;;
14992;SDS011;7592;51.088;13.732;2023-06-26T22:06:01;11.87;;;10.77;;
14992;SDS011;7592;51.088;13.732;2023-06-26T22:10:55;10.87;;;9.70;;
14992;SDS011;7592;51.088;13.732;2023-06-26T22:15:47;11.33;;;9.37;;
14992;SDS011;7592;51.088;13.732;2023-06-26T22:20:39;9.70;;;8.87;;
14992;SDS011;7592;51.088;13.732;2023-06-26T22:25:31;9.83;;;9.13;;
14992;SDS011;7592;51.088;13.732;2023-06-26T22:30:24;10.63;;;9.00;;
14992;SDS011;7592;51.088;13.732;2023-06-26T22:35:17;12.23;;;9.33;;
14992;SDS011;7592;51.088;13.732;2023-06-26T22:40:10;12.60;;;11.40;;
14992;SDS011;7592;51.088;13.732;2023-06-26T22:45:04;14.40;;;11.67;;
14992;SDS011;7592;51.088;13.732;2023-06-26T22:49:57;12.80;;;11.70;;
14992;SDS011;7592;51.088;13.732;2023-06-26T22:54:50;12.10;;;9.30;;
14992;SDS011;7592;51.088;13.732;2023-06-26T22:59:43;12.33;;;11.03;;
14992;SDS011;7592;51.088;13.732;2023-06-26T23:04:35;13.00;;;11.70;;
14992;SDS011;7592;51.088;13.732;2023-06-26T23:09:27;11.57;;;10.37;;
14992;SDS011;7592;51.088;13.732;2023-06-26T23:14:19;11.90;;;10.70;;
14992;SDS011;7592;51.088;13.732;2023-06-26T23:19:12;14.07;;;12.47;;
14992;SDS011;7592;51.088;13.732;2023-06-26T23:24:05;12.20;;;11.27;;
14992;SDS011;7592;51.088;13.732;2023-06-26T23:28:58;7.33;;;5.47;;
14992;SDS011;7592;51.088;13.732;2023-06-26T23:33:51;6.50;;;3.20;;
14992;SDS011;7592;51.088;13.732;2023-06-26T23:38:43;3.40;;;3.10;;
14992;SDS011;7592;51.088;13.732;2023-06-26T23:43:36;5.50;;;3.50;;
14992;SDS011;7592;51.088;13.732;2023-06-26T23:48:29;5.67;;;3.20;;
14992;SDS011;7592;51.088;13.732;2023-06-26T23:53:21;3.00;;;2.70;;
14992;SDS011;7592;51.088;13.732;2023-06-26T23:58:13;4.90;;;3.27;;
